createdAt,value
2022-07-31T00:01:22.079Z,27.15
2022-07-31T00:03:55.994Z,27.22
2022-07-31T00:06:26.918Z,27.24
2022-07-31T00:09:03.506Z,27.28
2022-07-31T00:11:37.044Z,27.33
2022-07-31T00:14:08.267Z,27.33
2022-07-31T00:16:39.058Z,27.35
2022-07-31T00:19:12.524Z,27.38
2022-07-31T00:21:43.238Z,27.38
2022-07-31T00:24:15.884Z,27.39
2022-07-31T00:26:47.746Z,27.42
2022-07-31T00:29:23.898Z,27.49
2022-07-31T00:32:07.269Z,27.58
2022-07-31T00:34:37.280Z,27.64
2022-07-31T00:37:11.735Z,27.67
2022-07-31T00:39:45.642Z,27.67
2022-07-31T00:42:25.622Z,27.71
2022-07-31T00:44:56.502Z,27.71
2022-07-31T00:47:31.803Z,27.68
2022-07-31T00:50:06.921Z,27.69
2022-07-31T00:52:38.381Z,27.71
2022-07-31T00:55:12.339Z,27.71
2022-07-31T00:57:45.254Z,27.69
2022-07-31T01:00:19.931Z,27.79
2022-07-31T01:03:00.452Z,27.83
2022-07-31T01:05:34.451Z,27.80
2022-07-31T01:08:05.912Z,27.81
2022-07-31T01:10:47.851Z,27.88
2022-07-31T01:13:30.053Z,27.94
2022-07-31T01:16:03.260Z,28.02
2022-07-31T01:18:39.837Z,28.11
2022-07-31T01:21:21.981Z,28.10
2022-07-31T01:24:06.579Z,28.13
2022-07-31T01:27:06.802Z,28.22
2022-07-31T01:29:50.983Z,28.28
2022-07-31T01:32:39.942Z,28.34
2022-07-31T01:35:29.383Z,28.42
2022-07-31T01:38:18.556Z,28.45
2022-07-31T01:40:54.981Z,28.46
2022-07-31T01:43:29.645Z,28.50
2022-07-31T01:46:09.262Z,28.55
2022-07-31T01:48:44.913Z,28.62
2022-07-31T01:51:18.051Z,28.67
2022-07-31T01:53:57.144Z,28.73
2022-07-31T01:56:34.309Z,28.78
2022-07-31T01:59:20.056Z,28.84
2022-07-31T02:02:15.889Z,28.88
2022-07-31T02:04:48.797Z,28.96
2022-07-31T02:07:33.135Z,29.04
2022-07-31T02:10:17.294Z,29.17
2022-07-31T02:12:54.824Z,29.23
2022-07-31T02:15:30.880Z,29.28
2022-07-31T02:18:03.541Z,29.32
2022-07-31T02:20:38.427Z,29.37
2022-07-31T02:23:12.399Z,29.37
2022-07-31T02:25:49.276Z,29.40
2022-07-31T02:28:34.505Z,29.44
2022-07-31T02:31:24.451Z,29.47
2022-07-31T02:33:59.350Z,29.53
2022-07-31T02:36:35.953Z,29.58
2022-07-31T02:39:12.890Z,29.62
2022-07-31T02:41:50.686Z,29.68
2022-07-31T02:44:27.361Z,29.72
2022-07-31T02:47:01.695Z,29.75
2022-07-31T02:49:40.179Z,29.77
2022-07-31T02:52:17.516Z,29.81
2022-07-31T02:54:49.473Z,29.86
2022-07-31T02:57:22.786Z,29.86
2022-07-31T03:00:03.785Z,29.94
2022-07-31T03:03:03.260Z,30.01
2022-07-31T03:06:45.353Z,30.10
2022-07-31T03:10:00.163Z,30.16
2022-07-31T03:16:17.048Z,30.16
2022-07-31T03:19:49.867Z,30.17
2022-07-31T03:23:27.374Z,30.20
2022-07-31T03:30:28.646Z,30.18
2022-07-31T03:32:30.341Z,30.10
2022-07-31T03:35:11.583Z,30.12
2022-07-31T03:41:04.700Z,30.16
2022-07-31T03:43:44.023Z,30.17
2022-07-31T03:46:27.468Z,30.21
2022-07-31T03:49:13.327Z,30.21
2022-07-31T03:52:01.402Z,30.26
2022-07-31T03:55:02.583Z,30.27
2022-07-31T03:58:03.106Z,30.27
2022-07-31T04:01:14.239Z,30.31
2022-07-31T04:04:34.179Z,30.31
2022-07-31T04:13:52.581Z,30.45
2022-07-31T04:21:12.695Z,30.51
2022-07-31T04:24:05.834Z,30.48
2022-07-31T04:27:12.293Z,30.47
2022-07-31T04:30:43.635Z,30.54
2022-07-31T04:33:46.529Z,30.57
2022-07-31T04:39:47.151Z,30.66
2022-07-31T04:42:56.621Z,30.70
2022-07-31T04:49:01.547Z,30.71
2022-07-31T04:59:16.962Z,30.79
2022-07-31T05:02:32.662Z,30.80
2022-07-31T05:11:44.473Z,30.93
2022-07-31T05:22:03.796Z,31.10
2022-07-31T05:36:35.189Z,31.18
2022-07-31T05:43:21.734Z,31.25
2022-07-31T05:46:07.177Z,31.28
2022-07-31T05:49:04.827Z,31.31
2022-07-31T05:55:08.729Z,31.28
2022-07-31T05:58:11.557Z,31.27
2022-07-31T06:01:08.437Z,31.23
2022-07-31T06:09:39.712Z,31.30
2022-07-31T06:12:48.647Z,31.31
2022-07-31T06:20:08.587Z,31.41
2022-07-31T06:23:44.895Z,31.50
2022-07-31T06:33:48.044Z,31.65
2022-07-31T06:37:15.948Z,31.69
2022-07-31T06:43:05.051Z,31.70
2022-07-31T06:54:15.898Z,31.76
2022-07-31T07:00:54.212Z,31.80
2022-07-31T07:28:41.507Z,32.26
2022-07-31T07:32:57.243Z,32.30
2022-07-31T07:36:47.402Z,32.27
2022-07-31T07:39:29.652Z,32.24
2022-07-31T07:42:01.700Z,32.22
2022-07-31T07:44:33.908Z,32.24
2022-07-31T07:47:05.077Z,32.28
2022-07-31T07:49:37.692Z,32.28
2022-07-31T07:52:44.020Z,32.27
2022-07-31T07:55:38.326Z,32.31
2022-07-31T07:58:35.000Z,32.35
2022-07-31T08:01:24.143Z,32.35
2022-07-31T08:04:06.288Z,32.35
2022-07-31T08:06:45.514Z,32.36
2022-07-31T08:09:20.246Z,32.39
2022-07-31T08:12:12.791Z,32.43
2022-07-31T08:15:13.772Z,32.46
2022-07-31T08:18:01.353Z,32.48
2022-07-31T08:20:38.649Z,32.49
2022-07-31T08:23:18.145Z,32.54
2022-07-31T08:25:52.674Z,32.55
2022-07-31T08:28:29.735Z,32.57
2022-07-31T08:31:01.230Z,32.57
2022-07-31T08:33:40.129Z,32.58
2022-07-31T08:36:11.531Z,32.54
2022-07-31T08:38:42.858Z,32.54
2022-07-31T08:41:32.316Z,32.56
2022-07-31T08:44:09.991Z,32.59
2022-07-31T09:07:49.652Z,32.77
2022-07-31T09:14:36.176Z,32.76
2022-07-31T09:17:16.908Z,32.75
2022-07-31T09:19:52.580Z,32.74
2022-07-31T09:22:33.457Z,32.73
2022-07-31T09:25:20.750Z,32.71
2022-07-31T09:27:54.859Z,32.69
2022-07-31T09:30:26.135Z,32.69
2022-07-31T09:33:20.643Z,32.67
2022-07-31T09:36:11.729Z,32.62
2022-07-31T09:38:49.002Z,32.59
2022-07-31T09:42:01.454Z,32.58
2022-07-31T09:44:44.699Z,32.56
2022-07-31T09:47:34.067Z,32.52
2022-07-31T09:50:10.471Z,32.46
2022-07-31T09:52:41.677Z,32.42
2022-07-31T10:02:03.419Z,32.22
2022-07-31T10:05:02.156Z,32.14
2022-07-31T10:07:37.999Z,32.10
2022-07-31T10:10:16.601Z,32.04
2022-07-31T10:13:21.184Z,32.01
2022-07-31T10:15:56.262Z,31.97
2022-07-31T10:18:55.439Z,31.95
2022-07-31T10:21:50.901Z,31.92
2022-07-31T10:24:48.371Z,31.88
2022-07-31T10:27:20.822Z,31.83
2022-07-31T10:30:06.492Z,31.80
2022-07-31T10:32:49.321Z,31.76
2022-07-31T10:35:45.691Z,31.72
2022-07-31T10:39:19.180Z,31.66
2022-07-31T10:42:29.557Z,31.60
2022-07-31T10:45:10.421Z,31.55
2022-07-31T10:48:14.342Z,31.47
2022-07-31T10:51:19.440Z,31.37
2022-07-31T10:54:27.332Z,31.30
2022-07-31T10:57:25.399Z,31.21
2022-07-31T11:00:29.505Z,31.23
2022-07-31T11:03:25.175Z,31.15
2022-07-31T11:07:00.855Z,31.08
2022-07-31T11:10:20.146Z,30.99
2022-07-31T11:13:12.785Z,31.03
2022-07-31T11:16:08.494Z,30.98
2022-07-31T11:19:12.267Z,30.89
2022-07-31T11:21:47.914Z,30.92
2022-07-31T11:24:25.712Z,30.89
2022-07-31T11:27:00.407Z,30.80
2022-07-31T11:30:01.674Z,30.81
2022-07-31T11:32:33.952Z,30.78
2022-07-31T11:35:04.977Z,30.73
2022-07-31T11:37:46.403Z,30.69
2022-07-31T11:40:28.366Z,30.66
2022-07-31T11:45:52.451Z,30.60
2022-07-31T11:48:27.582Z,30.56
2022-07-31T11:51:00.444Z,30.51
2022-07-31T11:53:31.985Z,30.48
2022-07-31T11:56:04.671Z,30.46
2022-07-31T11:58:38.008Z,30.41
2022-07-31T12:01:09.116Z,30.36
2022-07-31T12:03:41.530Z,30.36
2022-07-31T12:06:14.632Z,30.32
2022-07-31T12:08:46.517Z,30.29
2022-07-31T12:11:19.279Z,30.27
2022-07-31T12:13:51.435Z,30.26
2022-07-31T12:16:22.612Z,30.23
2022-07-31T12:18:58.497Z,30.20
2022-07-31T12:21:41.823Z,30.17
2022-07-31T12:24:16.791Z,30.15
2022-07-31T12:27:08.503Z,30.12
2022-07-31T12:29:41.832Z,30.09
2022-07-31T12:32:16.571Z,30.05
2022-07-31T12:34:51.692Z,30.01
2022-07-31T12:41:20.157Z,29.93
2022-07-31T12:48:06.092Z,29.85
2022-07-31T12:50:44.051Z,29.79
2022-07-31T12:53:23.267Z,29.78
2022-07-31T12:55:54.728Z,29.75
2022-07-31T12:58:28.423Z,29.73
2022-07-31T13:00:59.868Z,29.69
2022-07-31T13:03:45.483Z,29.66
2022-07-31T13:06:17.702Z,29.63
2022-07-31T13:08:49.185Z,29.59
2022-07-31T13:11:30.117Z,29.58
2022-07-31T13:14:21.884Z,29.56
2022-07-31T13:16:55.376Z,29.54
2022-07-31T13:19:26.888Z,29.54
2022-07-31T13:21:58.357Z,29.51
2022-07-31T13:24:30.245Z,29.49
2022-07-31T13:27:03.679Z,29.47
2022-07-31T13:29:36.784Z,29.43
2022-07-31T13:32:14.516Z,29.36
2022-07-31T13:34:45.835Z,29.32
2022-07-31T13:37:22.251Z,29.26
2022-07-31T13:39:53.307Z,29.24
2022-07-31T13:42:29.238Z,29.23
2022-07-31T13:54:41.832Z,29.15
2022-07-31T13:57:13.197Z,29.15
2022-07-31T13:59:44.796Z,29.13
2022-07-31T14:02:16.396Z,29.10
2022-07-31T14:04:47.472Z,29.08
2022-07-31T14:07:23.120Z,29.07
2022-07-31T14:10:20.685Z,29.04
2022-07-31T14:12:56.172Z,29.01
2022-07-31T14:15:30.224Z,28.97
2022-07-31T14:18:04.289Z,28.94
2022-07-31T14:20:42.637Z,28.93
2022-07-31T14:23:14.130Z,28.91
2022-07-31T14:25:45.899Z,28.89
2022-07-31T14:28:21.925Z,28.86
2022-07-31T14:30:57.677Z,28.82
2022-07-31T14:33:37.899Z,28.74
2022-07-31T14:36:09.790Z,28.66
2022-07-31T14:38:47.098Z,28.63
2022-07-31T14:41:18.593Z,28.56
2022-07-31T14:43:56.258Z,28.51
2022-07-31T14:46:51.351Z,28.45
2022-07-31T14:50:06.605Z,28.44
2022-07-31T14:52:30.201Z,28.39
2022-07-31T14:55:15.179Z,28.36
2022-07-31T14:57:46.570Z,28.38
2022-07-31T15:00:24.224Z,28.39
2022-07-31T15:03:00.407Z,28.40
2022-07-31T15:06:40.073Z,28.41
2022-07-31T15:08:29.595Z,28.37
2022-07-31T15:11:11.185Z,28.31
2022-07-31T15:13:57.117Z,28.32
2022-07-31T15:16:49.707Z,28.30
2022-07-31T15:26:18.283Z,28.26
2022-07-31T15:28:52.168Z,28.26
2022-07-31T15:31:23.929Z,28.25
2022-07-31T15:33:55.960Z,28.25
2022-07-31T15:36:29.105Z,28.22
2022-07-31T15:39:00.895Z,28.24
2022-07-31T15:41:32.498Z,28.25
2022-07-31T15:44:07.259Z,28.21
2022-07-31T15:46:39.455Z,28.20
2022-07-31T15:49:10.777Z,28.21
2022-07-31T15:51:43.360Z,28.19
2022-07-31T15:54:18.774Z,28.19
2022-07-31T15:56:50.904Z,28.18
2022-07-31T15:59:22.502Z,28.16
2022-07-31T16:01:54.140Z,28.13
2022-07-31T16:04:25.371Z,28.14
2022-07-31T16:08:32.999Z,28.13
2022-07-31T16:10:03.548Z,28.12
2022-07-31T16:12:49.618Z,28.10
2022-07-31T16:15:23.457Z,28.08
2022-07-31T16:18:01.680Z,28.05
2022-07-31T16:20:33.221Z,28.05
2022-07-31T16:23:04.802Z,28.00
2022-07-31T16:25:36.229Z,28.00
2022-07-31T16:28:08.115Z,27.99
2022-07-31T16:30:39.477Z,27.98
2022-07-31T16:33:11.229Z,27.97
2022-07-31T16:35:42.991Z,27.98
2022-07-31T16:38:14.067Z,27.95
2022-07-31T16:40:45.409Z,27.88
2022-07-31T16:43:49.894Z,27.83
2022-07-31T16:46:08.336Z,27.78
2022-07-31T16:48:39.873Z,27.75
2022-07-31T16:51:11.858Z,27.74
2022-07-31T16:54:14.014Z,27.75
2022-07-31T16:56:36.179Z,27.74
2022-07-31T16:59:09.901Z,27.73
2022-07-31T17:01:53.881Z,27.71
2022-07-31T17:04:32.353Z,27.70
2022-07-31T17:07:03.807Z,27.68
2022-07-31T17:09:35.353Z,27.66
2022-07-31T17:12:08.376Z,27.65
2022-07-31T17:14:41.475Z,27.68
2022-07-31T17:17:13.213Z,27.67
2022-07-31T17:19:46.782Z,27.68
2022-07-31T17:22:18.862Z,27.65
2022-07-31T17:24:53.374Z,27.67
2022-07-31T17:27:25.808Z,27.67
2022-07-31T17:29:57.025Z,27.67
2022-07-31T17:32:28.076Z,27.66
2022-07-31T17:34:59.159Z,27.67
2022-07-31T17:37:32.895Z,27.64
2022-07-31T17:40:09.767Z,27.64
2022-07-31T17:42:52.610Z,27.65
2022-07-31T17:45:24.689Z,27.65
2022-07-31T17:48:03.301Z,27.66
2022-07-31T17:50:36.177Z,27.67
2022-07-31T17:53:07.439Z,27.66
2022-07-31T17:55:41.069Z,27.66
2022-07-31T17:58:14.316Z,27.63
2022-07-31T18:00:45.303Z,27.65
2022-07-31T18:03:16.218Z,27.64
2022-07-31T18:05:47.493Z,27.63
2022-07-31T18:08:18.462Z,27.62
2022-07-31T18:10:54.351Z,27.62
2022-07-31T18:13:25.806Z,27.61
2022-07-31T18:15:56.524Z,27.60
2022-07-31T18:18:27.383Z,27.60
2022-07-31T18:20:58.827Z,27.57
2022-07-31T18:23:33.748Z,27.54
2022-07-31T18:26:06.303Z,27.54
2022-07-31T18:28:36.921Z,27.53
2022-07-31T18:31:30.717Z,27.52
2022-07-31T18:33:58.961Z,27.50
2022-07-31T18:36:30.028Z,27.48
2022-07-31T18:39:00.683Z,27.45
2022-07-31T18:41:31.660Z,27.43
2022-07-31T18:44:03.180Z,27.43
2022-07-31T18:46:35.193Z,27.38
2022-07-31T18:49:07.571Z,27.42
2022-07-31T18:51:58.374Z,27.41
2022-07-31T18:54:28.956Z,27.39
2022-07-31T18:57:00.042Z,27.40
2022-07-31T18:59:30.617Z,27.40
2022-07-31T19:02:01.415Z,27.39
2022-07-31T19:04:31.866Z,27.36
2022-07-31T19:07:02.049Z,27.37
2022-07-31T19:09:32.476Z,27.35
2022-07-31T19:12:08.027Z,27.35
2022-07-31T19:14:39.812Z,27.35
2022-07-31T19:17:10.084Z,27.35
2022-07-31T19:19:54.280Z,27.34
2022-07-31T19:22:31.068Z,27.35
2022-07-31T19:25:01.410Z,27.35
2022-07-31T19:27:48.073Z,27.33
2022-07-31T19:30:20.373Z,27.34
2022-07-31T19:32:51.002Z,27.35
2022-07-31T19:35:22.200Z,27.32
2022-07-31T19:38:01.200Z,27.33
2022-07-31T19:40:33.264Z,27.34
2022-07-31T19:43:04.011Z,27.32
2022-07-31T19:45:35.265Z,27.30
2022-07-31T19:48:26.167Z,27.30
2022-07-31T19:50:57.202Z,27.27
2022-07-31T19:53:27.921Z,27.30
2022-07-31T19:55:58.623Z,27.29
2022-07-31T19:58:32.038Z,27.26
2022-07-31T20:01:03.148Z,27.28
2022-07-31T20:03:33.982Z,27.25
2022-07-31T20:06:05.727Z,27.24
2022-07-31T20:08:36.864Z,27.24
2022-07-31T20:11:08.118Z,27.24
2022-07-31T20:13:41.400Z,27.24
2022-07-31T20:16:12.393Z,27.21
2022-07-31T20:18:42.695Z,27.22
2022-07-31T20:21:13.111Z,27.21
2022-07-31T20:23:43.603Z,27.18
2022-07-31T20:26:16.381Z,27.15
2022-07-31T20:28:46.879Z,27.12
2022-07-31T20:31:21.988Z,27.14
2022-07-31T20:33:57.667Z,27.11
2022-07-31T20:36:30.484Z,27.12
2022-07-31T20:39:00.821Z,27.09
2022-07-31T20:41:31.021Z,27.09
2022-07-31T20:44:02.117Z,27.07
2022-07-31T20:46:31.902Z,27.06
2022-07-31T20:49:02.199Z,27.04
2022-07-31T20:51:32.885Z,27.00
2022-07-31T20:54:03.040Z,27.00
2022-07-31T20:56:33.630Z,26.98
2022-07-31T20:59:03.804Z,26.98
2022-07-31T21:01:34.058Z,26.96
2022-07-31T21:04:04.660Z,26.94
2022-07-31T21:06:34.706Z,26.94
2022-07-31T21:09:05.860Z,26.91
2022-07-31T21:11:36.436Z,26.94
2022-07-31T21:14:07.222Z,26.92
2022-07-31T21:16:37.521Z,26.92
2022-07-31T21:19:09.325Z,26.92
2022-07-31T21:21:40.803Z,26.92
2022-07-31T21:24:11.071Z,26.88
2022-07-31T21:26:43.287Z,26.91
2022-07-31T21:29:14.511Z,26.89
2022-07-31T21:31:49.127Z,26.88
2022-07-31T21:34:21.522Z,26.88
2022-07-31T21:36:52.209Z,26.87
2022-07-31T21:39:26.911Z,26.87
2022-07-31T21:41:57.508Z,26.87
2022-07-31T21:44:28.134Z,26.88
2022-07-31T21:47:01.099Z,26.85
2022-07-31T21:49:36.146Z,26.88
2022-07-31T21:52:07.878Z,26.88
2022-07-31T21:54:38.476Z,26.90
2022-07-31T21:57:08.550Z,26.91
2022-07-31T21:59:38.827Z,26.89
2022-07-31T22:02:09.267Z,26.88
2022-07-31T22:05:00.070Z,26.91
2022-07-31T22:07:36.011Z,26.91
2022-07-31T22:10:07.167Z,26.93
2022-07-31T22:12:37.710Z,26.95
2022-07-31T22:15:11.237Z,26.94
2022-07-31T22:17:45.540Z,26.95
2022-07-31T22:20:16.402Z,26.93
2022-07-31T22:22:47.361Z,26.97
2022-07-31T22:25:19.126Z,26.98
2022-07-31T22:27:58.769Z,27.00
2022-07-31T22:30:31.164Z,27.00
2022-07-31T22:33:02.426Z,27.02
2022-07-31T22:35:34.450Z,27.04
2022-07-31T22:38:04.875Z,27.04
2022-07-31T22:40:36.718Z,27.07
2022-07-31T22:44:09.862Z,27.08
2022-07-31T22:46:00.804Z,27.09
2022-07-31T22:48:32.709Z,27.11
2022-07-31T22:51:05.467Z,27.11
2022-07-31T22:53:36.384Z,27.14
2022-07-31T22:56:07.197Z,27.15
2022-07-31T22:58:38.702Z,27.16
2022-07-31T23:01:08.817Z,27.17
2022-07-31T23:03:38.817Z,27.19
2022-07-31T23:06:30.553Z,27.22
2022-07-31T23:09:02.176Z,27.25
2022-07-31T23:11:32.587Z,27.26
2022-07-31T23:14:02.582Z,27.27
2022-07-31T23:16:32.861Z,27.30
2022-07-31T23:19:03.256Z,27.32
2022-07-31T23:21:34.093Z,27.34
2022-07-31T23:24:05.149Z,27.41
2022-07-31T23:26:36.072Z,27.43
2022-07-31T23:29:05.976Z,27.48
2022-07-31T23:31:37.464Z,27.50
2022-07-31T23:34:08.352Z,27.52
2022-07-31T23:36:39.529Z,27.57
2022-07-31T23:39:10.712Z,27.63
2022-07-31T23:42:00.118Z,27.66
2022-07-31T23:44:30.861Z,27.72
2022-07-31T23:47:02.785Z,27.77
2022-07-31T23:49:33.150Z,27.82
2022-07-31T23:52:04.034Z,27.89
2022-07-31T23:54:35.090Z,27.93
2022-07-31T23:57:06.532Z,27.98
2022-07-31T23:59:38.054Z,28.04
